Port Star — 3EAS6 — position and weather

sailwx.info

Track history (hours):
 
Tides and Currents Weather Stations Pressure Air Temp Water Temp Dewpoint Dewpoint Depression Visibility Wind Speed Wind Dir Waves Ship Positions

Port Star

Last reported at 2017-Sep-13 14:57 UTC. Time now 2017-Oct-18 16:50 UTC.
Position N 01°18' E 103°21'.
Warning: this ship's position is 35 days out of date.

Length 175.5 m; beam 29.4 m.

Type: Ship. MMSI: 356105000.

Date/timePositionNaut miles runAvg speedWind from/ knotsBaromVisibWave heightAir tempDewpointWater temp
2017-Sep-13 14:57N 01°18' E 103°21'613.5
2017-Sep-13 14:29N 01°14' E 103°26'713.4
2017-Sep-13 13:59N 01°13' E 103°33'612.4
2017-Sep-13 13:30N 01°11' E 103°39'610.9
2017-Sep-13 12:59N 01°08' E 103°43'510.4
2017-Sep-13 12:30N 01°10' E 103°48'5 9.8
2017-Sep-13 12:00N 01°12' E 103°52'2 5.0
2017-Sep-13 11:30N 01°15' E 103°53'1 1.1
2017-Sep-13 10:59N 01°15' E 103°53'0 0.0
2017-Sep-13 10:29N 01°15' E 103°53'0 0.0
2017-Sep-13 09:59N 01°15' E 103°53'0 0.0
2017-Sep-13 09:30N 01°15' E 103°53'0 0.0
2017-Sep-13 08:59N 01°15' E 103°53'0 0.0
2017-Sep-13 08:29N 01°15' E 103°53'0 0.2
2017-Sep-13 07:59N 01°15' E 103°53'0 0.1
2017-Sep-13 07:05N 01°15' E 103°53'0 0.0
2017-Sep-13 06:44N 01°15' E 103°53'0 0.0
2017-Sep-13 06:29N 01°15' E 103°53'0 0.0
2017-Sep-13 05:59N 01°15' E 103°53'0 0.0
2017-Sep-13 05:29N 01°15' E 103°53'0 0.0
2017-Sep-13 04:53N 01°15' E 103°53'0 0.0
2017-Sep-13 04:23N 01°15' E 103°53'0 0.0
2017-Sep-13 03:59N 01°15' E 103°53'0 0.0
2017-Sep-13 02:54N 01°15' E 103°53'0 0.0
2017-Sep-13 02:29N 01°15' E 103°53'0 0.0
2017-Sep-13 01:56N 01°15' E 103°53'0 0.0
2017-Sep-12 23:44N 01°15' E 103°53'0 0.0
2017-Sep-12 23:24N 01°15' E 103°53'0 0.0
2017-Sep-12 23:00N 01°15' E 103°53'0 0.0
2017-Sep-12 22:29N 01°15' E 103°53'1 1.5
2017-Sep-12 22:01N 01°15' E 103°53'1 2.0
2017-Sep-12 21:31N 01°14' E 103°54'2 4.4
2017-Sep-12 21:00N 01°14' E 103°56'2 4.7
2017-Sep-12 20:30N 01°15' E 103°58'3 5.0
2017-Sep-12 19:58N 01°16' E 104°01'  
Track history (hours):
 
Tides and Currents Weather Stations Pressure Air Temp Water Temp Dewpoint Dewpoint Depression Visibility Wind Speed Wind Dir Waves Ship Positions

Port Star

Last reported at 2017-Sep-13 14:57 UTC. Time now 2017-Oct-18 16:50 UTC.
Position N 01°18' E 103°21'.
Warning: this ship's position is 35 days out of date.

Length 175.5 m; beam 29.4 m.

Type: Ship. MMSI: 356105000.

Date/timePositionNaut miles runAvg speedWind from/ knotsBaromVisibWave heightAir tempDewpointWater temp
2017-Sep-13 14:57N 01°18' E 103°21'613.5
2017-Sep-13 14:29N 01°14' E 103°26'713.4
2017-Sep-13 13:59N 01°13' E 103°33'612.4
2017-Sep-13 13:30N 01°11' E 103°39'610.9
2017-Sep-13 12:59N 01°08' E 103°43'510.4
2017-Sep-13 12:30N 01°10' E 103°48'5 9.8
2017-Sep-13 12:00N 01°12' E 103°52'2 5.0
2017-Sep-13 11:30N 01°15' E 103°53'1 1.1
2017-Sep-13 10:59N 01°15' E 103°53'0 0.0
2017-Sep-13 10:29N 01°15' E 103°53'0 0.0
2017-Sep-13 09:59N 01°15' E 103°53'0 0.0
2017-Sep-13 09:30N 01°15' E 103°53'0 0.0
2017-Sep-13 08:59N 01°15' E 103°53'0 0.0
2017-Sep-13 08:29N 01°15' E 103°53'0 0.2
2017-Sep-13 07:59N 01°15' E 103°53'0 0.1
2017-Sep-13 07:05N 01°15' E 103°53'0 0.0
2017-Sep-13 06:44N 01°15' E 103°53'0 0.0
2017-Sep-13 06:29N 01°15' E 103°53'0 0.0
2017-Sep-13 05:59N 01°15' E 103°53'0 0.0
2017-Sep-13 05:29N 01°15' E 103°53'0 0.0
2017-Sep-13 04:53N 01°15' E 103°53'0 0.0
2017-Sep-13 04:23N 01°15' E 103°53'0 0.0
2017-Sep-13 03:59N 01°15' E 103°53'0 0.0
2017-Sep-13 02:54N 01°15' E 103°53'0 0.0
2017-Sep-13 02:29N 01°15' E 103°53'0 0.0
2017-Sep-13 01:56N 01°15' E 103°53'0 0.0
2017-Sep-12 23:44N 01°15' E 103°53'0 0.0
2017-Sep-12 23:24N 01°15' E 103°53'0 0.0
2017-Sep-12 23:00N 01°15' E 103°53'0 0.0
2017-Sep-12 22:29N 01°15' E 103°53'1 1.5
2017-Sep-12 22:01N 01°15' E 103°53'1 2.0
2017-Sep-12 21:31N 01°14' E 103°54'2 4.4
2017-Sep-12 21:00N 01°14' E 103°56'2 4.7
2017-Sep-12 20:30N 01°15' E 103°58'3 5.0
2017-Sep-12 19:58N 01°16' E 104°01'  

Dump ship's entire track history